createdAt,value
2017-11-03T00:02:51.698Z,204.30
2017-11-03T00:03:54.421Z,203.95
2017-11-03T00:04:57.037Z,187.60
2017-11-03T00:05:59.760Z,199.87
2017-11-03T00:07:02.253Z,178.85
2017-11-03T00:08:05.715Z,165.10
2017-11-03T00:09:08.226Z,186.43
2017-11-03T00:10:11.974Z,183.85
2017-11-03T00:11:15.244Z,186.25
2017-11-03T00:12:17.930Z,176.27
2017-11-03T00:13:20.423Z,180.20
2017-11-03T00:14:23.928Z,179.32
2017-11-03T00:15:26.434Z,190.30
2017-11-03T00:16:29.319Z,192.18
2017-11-03T00:17:32.432Z,209.98
2017-11-03T00:18:37.282Z,163.70
2017-11-03T00:19:39.889Z,159.45
2017-11-03T00:20:42.410Z,167.95
2017-11-03T00:21:44.922Z,163.52
2017-11-03T00:22:48.764Z,160.98
2017-11-03T00:23:52.197Z,174.57
2017-11-03T00:24:54.888Z,162.18
2017-11-03T00:25:58.160Z,159.12
2017-11-03T00:27:02.375Z,158.10
2017-11-03T00:28:04.907Z,146.80
2017-11-03T00:29:07.407Z,159.15
2017-11-03T00:30:09.905Z,154.40
2017-11-03T00:31:12.512Z,159.65
2017-11-03T00:32:15.057Z,155.15
2017-11-03T00:33:17.761Z,140.30
2017-11-03T00:34:20.269Z,131.77
2017-11-03T00:35:22.782Z,166.68
2017-11-03T00:36:25.308Z,153.77
2017-11-03T00:37:27.945Z,149.95
2017-11-03T00:38:31.217Z,155.90
2017-11-03T00:39:33.801Z,138.98
2017-11-03T00:40:37.929Z,150.93
2017-11-03T00:41:40.875Z,126.05
2017-11-03T00:42:44.154Z,150.70
2017-11-03T00:43:47.636Z,156.70
2017-11-03T00:44:51.141Z,154.07
2017-11-03T00:45:54.504Z,155.70
2017-11-03T00:46:57.802Z,150.23
2017-11-03T00:48:00.604Z,150.43
2017-11-03T00:49:03.096Z,172.30
2017-11-03T00:50:05.799Z,165.00
2017-11-03T00:51:08.310Z,171.23
2017-11-03T00:52:11.172Z,167.10
2017-11-03T00:53:14.485Z,154.12
2017-11-03T00:54:17.086Z,141.77
2017-11-03T00:55:19.601Z,150.20
2017-11-03T00:56:22.441Z,159.75
2017-11-03T00:57:25.093Z,161.07
2017-11-03T00:58:28.693Z,148.85
2017-11-03T00:59:32.011Z,171.93
2017-11-03T01:00:34.866Z,191.27
2017-11-03T01:01:38.129Z,186.52
2017-11-03T01:02:40.946Z,158.85
2017-11-03T01:03:43.471Z,158.70
2017-11-03T01:04:46.238Z,158.37
2017-11-03T01:05:48.769Z,169.30
2017-11-03T01:06:51.585Z,159.18
2017-11-03T01:07:54.856Z,147.62
2017-11-03T01:08:58.610Z,153.38
2017-11-03T01:10:01.826Z,157.88
2017-11-03T01:11:04.413Z,155.30
2017-11-03T01:12:06.928Z,158.10
2017-11-03T01:13:11.135Z,150.82
2017-11-03T01:14:14.885Z,129.85
2017-11-03T01:16:47.480Z,135.27
2017-11-03T01:17:50.427Z,142.35
2017-11-03T01:18:53.004Z,151.90
2017-11-03T01:19:55.909Z,126.82
2017-11-03T01:20:59.666Z,144.02
2017-11-03T01:22:02.419Z,127.62
2017-11-03T01:23:05.709Z,121.97
2017-11-03T01:24:09.253Z,140.02
2017-11-03T01:25:11.758Z,124.50
2017-11-03T01:26:15.212Z,126.35
2017-11-03T01:27:17.722Z,110.78
2017-11-03T01:28:20.285Z,116.65
2017-11-03T01:29:23.560Z,112.37
2017-11-03T01:30:27.855Z,113.05
2017-11-03T01:33:04.128Z,102.43
2017-11-03T01:34:07.396Z,101.80
2017-11-03T01:35:10.053Z,108.85
2017-11-03T01:36:12.595Z,105.68
2017-11-03T01:37:15.517Z,79.68
2017-11-03T01:38:20.384Z,93.65
2017-11-03T01:39:24.076Z,88.70
2017-11-03T01:40:27.590Z,82.60
2017-11-03T01:41:31.386Z,85.65
2017-11-03T01:42:34.197Z,83.15
2017-11-03T01:43:37.085Z,75.72
2017-11-03T01:44:41.127Z,83.20
2017-11-03T01:45:44.556Z,88.20
2017-11-03T01:46:47.173Z,87.47
2017-11-03T01:47:49.860Z,98.07
2017-11-03T01:48:52.728Z,92.12
2017-11-03T01:50:00.094Z,116.53
2017-11-03T01:51:02.900Z,126.90
2017-11-03T01:52:06.597Z,104.80
2017-11-03T01:53:10.420Z,95.82
2017-11-03T01:54:13.878Z,86.70
2017-11-03T01:55:18.808Z,92.10
2017-11-03T01:57:51.993Z,80.80
2017-11-03T01:58:56.037Z,95.30
2017-11-03T02:01:26.718Z,94.70
2017-11-03T02:02:29.332Z,83.62
2017-11-03T02:03:32.101Z,84.50
2017-11-03T02:04:35.475Z,87.65
2017-11-03T02:05:38.906Z,88.78
2017-11-03T02:06:41.527Z,79.72
2017-11-03T02:07:44.452Z,97.32
2017-11-03T02:08:47.093Z,73.75
2017-11-03T02:09:50.524Z,83.20
2017-11-03T02:10:54.106Z,79.95
2017-11-03T02:11:56.833Z,85.00
2017-11-03T02:12:59.639Z,97.28
2017-11-03T02:14:02.826Z,109.87
2017-11-03T02:15:05.468Z,93.20
2017-11-03T02:16:09.211Z,107.40
2017-11-03T02:17:12.904Z,102.82
2017-11-03T02:18:18.875Z,103.28
2017-11-03T02:19:21.581Z,129.82
2017-11-03T02:20:25.481Z,132.12
2017-11-03T02:21:29.052Z,153.87
2017-11-03T02:22:33.114Z,136.85
2017-11-03T02:23:36.065Z,168.73
2017-11-03T02:24:40.402Z,106.95
2017-11-03T02:25:43.303Z,128.68
2017-11-03T02:26:48.525Z,157.35
2017-11-03T02:27:51.391Z,138.82
2017-11-03T02:28:55.239Z,137.10
2017-11-03T02:29:58.147Z,146.05
2017-11-03T02:31:01.534Z,139.25
2017-11-03T02:32:05.851Z,173.90
2017-11-03T02:33:08.345Z,146.15
2017-11-03T02:34:10.984Z,154.68
2017-11-03T02:35:13.494Z,230.50
2017-11-03T02:36:18.117Z,198.57
2017-11-03T02:37:21.494Z,157.80
2017-11-03T02:38:26.182Z,193.07
2017-11-03T02:39:30.330Z,148.02
2017-11-03T02:40:33.908Z,166.60
2017-11-03T02:41:37.216Z,171.95
2017-11-03T02:42:40.032Z,161.62
2017-11-03T02:43:44.793Z,158.80
2017-11-03T02:44:48.442Z,176.43
2017-11-03T02:45:51.164Z,268.48
2017-11-03T02:46:53.808Z,202.80
2017-11-03T02:47:57.415Z,187.73
2017-11-03T02:49:00.024Z,144.25
2017-11-03T02:50:02.620Z,238.65
2017-11-03T02:51:05.406Z,216.30
2017-11-03T02:52:07.991Z,201.30
2017-11-03T02:53:10.641Z,248.77
2017-11-03T02:54:13.939Z,151.25
2017-11-03T02:55:16.765Z,248.02
2017-11-03T02:56:19.300Z,161.62
2017-11-03T02:57:21.977Z,173.80
2017-11-03T02:58:25.093Z,287.58
2017-11-03T02:59:27.921Z,190.00
2017-11-03T03:00:31.634Z,172.82
2017-11-03T03:01:34.697Z,197.43
2017-11-03T03:02:37.212Z,211.10
2017-11-03T03:03:40.948Z,359.17
2017-11-03T03:04:43.510Z,211.93
2017-11-03T03:05:46.350Z,278.10
2017-11-03T03:06:49.045Z,266.42
2017-11-03T03:07:51.834Z,179.40
2017-11-03T03:08:54.532Z,223.25
2017-11-03T03:09:57.603Z,230.52
2017-11-03T03:11:01.975Z,310.83
2017-11-03T03:12:05.478Z,180.07
2017-11-03T03:13:08.084Z,235.65
2017-11-03T03:14:10.915Z,323.10
2017-11-03T03:15:14.246Z,304.02
2017-11-03T03:16:17.038Z,199.38
2017-11-03T03:17:20.348Z,212.30
2017-11-03T03:18:23.924Z,392.40
2017-11-03T03:19:28.273Z,445.15
2017-11-03T03:20:31.156Z,324.73
2017-11-03T03:21:33.655Z,359.73
2017-11-03T03:22:36.530Z,538.47
2017-11-03T03:23:39.165Z,677.55
2017-11-03T03:24:42.850Z,378.58
2017-11-03T03:25:45.354Z,373.70
2017-11-03T03:26:47.950Z,430.92
2017-11-03T03:27:50.488Z,590.92
2017-11-03T03:28:58.115Z,532.83
2017-11-03T03:30:00.602Z,446.77
2017-11-03T03:31:03.401Z,465.73
2017-11-03T03:32:05.939Z,413.45
2017-11-03T03:33:09.114Z,583.67
2017-11-03T03:34:11.785Z,567.78
2017-11-03T03:35:14.562Z,387.88
2017-11-03T03:36:17.063Z,629.05
2017-11-03T03:37:20.530Z,657.72
2017-11-03T03:38:23.054Z,467.85
2017-11-03T03:39:25.604Z,639.47
2017-11-03T03:40:28.972Z,507.83
2017-11-03T03:41:31.533Z,414.45
2017-11-03T03:42:34.064Z,393.92
2017-11-03T03:43:36.887Z,747.58
2017-11-03T03:44:39.400Z,484.20
2017-11-03T03:45:42.394Z,591.22
2017-11-03T03:46:44.970Z,491.27
2017-11-03T03:47:47.567Z,426.45
2017-11-03T03:48:51.456Z,436.52
2017-11-03T03:49:54.995Z,548.03
2017-11-03T03:50:57.517Z,370.40
2017-11-03T03:52:01.125Z,756.50
2017-11-03T03:53:04.600Z,442.45
2017-11-03T03:54:07.914Z,501.05
2017-11-03T03:55:10.423Z,499.35
2017-11-03T03:56:13.221Z,477.33
2017-11-03T03:57:16.493Z,537.05
2017-11-03T03:58:19.244Z,554.58
2017-11-03T03:59:21.984Z,371.80
2017-11-03T04:00:24.821Z,461.12
2017-11-03T04:01:28.113Z,430.33
2017-11-03T04:02:31.652Z,381.67
2017-11-03T04:03:34.144Z,400.20
2017-11-03T04:04:37.683Z,444.83
2017-11-03T04:05:40.248Z,335.35
2017-11-03T04:06:42.962Z,456.73
2017-11-03T04:07:45.474Z,380.00
2017-11-03T04:08:50.194Z,335.52
2017-11-03T04:09:53.542Z,477.80
2017-11-03T04:10:57.036Z,369.52
2017-11-03T04:12:00.319Z,554.67
2017-11-03T04:13:03.630Z,449.27
2017-11-03T04:14:06.884Z,434.75
2017-11-03T04:15:09.541Z,456.75
2017-11-03T04:16:12.023Z,276.33
2017-11-03T04:17:15.560Z,327.35
2017-11-03T04:18:18.127Z,327.58
2017-11-03T04:19:21.593Z,445.85
2017-11-03T04:20:25.724Z,399.27
2017-11-03T04:21:28.778Z,321.40
2017-11-03T04:22:31.763Z,392.13
2017-11-03T04:23:34.598Z,507.95
2017-11-03T04:24:37.097Z,503.45
2017-11-03T04:25:39.610Z,548.20
2017-11-03T04:26:42.139Z,506.10
2017-11-03T04:27:44.694Z,460.42
2017-11-03T04:28:47.188Z,434.58
2017-11-03T04:29:49.727Z,452.00
2017-11-03T04:30:52.213Z,444.33
2017-11-03T04:31:55.358Z,430.60
2017-11-03T04:32:58.653Z,444.10
2017-11-03T04:34:01.352Z,514.10
2017-11-03T04:35:03.865Z,443.55
2017-11-03T04:36:07.219Z,462.12
2017-11-03T04:37:09.724Z,434.75
2017-11-03T04:38:13.180Z,433.58
2017-11-03T04:39:15.710Z,433.23
2017-11-03T04:40:19.443Z,423.80
2017-11-03T04:41:21.948Z,514.63
2017-11-03T04:42:24.510Z,533.08
2017-11-03T04:43:27.768Z,413.50
2017-11-03T04:44:31.053Z,586.22
2017-11-03T04:45:34.339Z,448.10
2017-11-03T04:46:37.039Z,458.42
2017-11-03T04:47:39.659Z,471.75
2017-11-03T04:48:43.869Z,379.83
2017-11-03T04:49:46.362Z,350.90
2017-11-03T04:50:49.832Z,448.17
2017-11-03T04:51:52.344Z,363.70
2017-11-03T04:52:55.216Z,488.40
2017-11-03T04:53:57.906Z,421.48
2017-11-03T04:55:00.601Z,336.02
2017-11-03T04:56:03.224Z,376.83
2017-11-03T04:57:05.868Z,276.15
2017-11-03T04:58:09.138Z,297.80
2017-11-03T04:59:14.228Z,396.20
2017-11-03T05:00:16.726Z,357.33
2017-11-03T05:01:19.347Z,331.42
2017-11-03T05:02:22.808Z,258.90
2017-11-03T05:03:25.566Z,253.82
2017-11-03T05:04:28.331Z,240.12
2017-11-03T05:05:32.443Z,252.55
2017-11-03T05:06:34.941Z,226.35
2017-11-03T05:07:39.358Z,260.60
2017-11-03T05:08:42.645Z,245.68
2017-11-03T05:09:47.427Z,321.77
2017-11-03T05:10:49.949Z,336.67
2017-11-03T05:11:52.816Z,404.27
2017-11-03T05:12:56.096Z,421.52
2017-11-03T05:14:00.543Z,314.77
2017-11-03T05:15:03.100Z,349.58
2017-11-03T05:16:05.902Z,259.35
2017-11-03T05:17:08.395Z,293.58
2017-11-03T05:18:11.037Z,478.33
2017-11-03T05:19:13.657Z,244.80
2017-11-03T05:20:16.387Z,248.82
2017-11-03T05:21:20.377Z,228.32
2017-11-03T05:22:23.144Z,231.25
2017-11-03T05:23:25.678Z,264.02
2017-11-03T05:24:29.434Z,350.27
2017-11-03T05:25:31.933Z,387.30
2017-11-03T05:26:34.775Z,273.23
2017-11-03T05:27:38.156Z,268.67
2017-11-03T05:28:42.112Z,343.83
2017-11-03T05:29:44.927Z,319.42
2017-11-03T05:30:48.216Z,277.25
2017-11-03T05:31:51.784Z,209.60
2017-11-03T05:32:55.132Z,228.85
2017-11-03T05:33:57.942Z,325.48
2017-11-03T05:35:02.176Z,408.58
2017-11-03T05:36:05.531Z,343.98
2017-11-03T05:37:08.074Z,274.70
2017-11-03T05:38:10.952Z,395.58
2017-11-03T05:39:13.451Z,330.33
2017-11-03T05:40:16.909Z,265.00
2017-11-03T05:41:20.176Z,210.48
2017-11-03T05:42:22.765Z,317.37
2017-11-03T05:43:44.669Z,251.02
2017-11-03T05:44:47.597Z,181.90
2017-11-03T05:45:50.994Z,375.87
2017-11-03T05:46:54.335Z,283.80
2017-11-03T05:47:57.045Z,315.20
2017-11-03T05:49:01.540Z,301.08
2017-11-03T05:50:04.823Z,283.52
2017-11-03T05:51:07.614Z,392.58
2017-11-03T05:52:10.887Z,567.37
2017-11-03T05:53:13.422Z,330.73
2017-11-03T05:54:15.925Z,335.05
2017-11-03T05:55:19.375Z,444.48
2017-11-03T05:56:21.923Z,245.73
2017-11-03T05:57:24.723Z,233.87
2017-11-03T05:58:27.217Z,338.85
2017-11-03T05:59:30.693Z,208.02
2017-11-03T06:00:33.178Z,385.50
2017-11-03T06:01:36.643Z,259.25
2017-11-03T06:02:39.134Z,287.35
2017-11-03T06:03:42.610Z,587.60
2017-11-03T06:04:45.956Z,413.98
2017-11-03T06:05:48.547Z,227.87
2017-11-03T06:06:51.045Z,292.08
2017-11-03T06:07:53.899Z,250.77
2017-11-03T06:08:57.244Z,258.33
2017-11-03T06:10:00.756Z,237.12
2017-11-03T06:11:03.323Z,368.17
2017-11-03T06:12:07.991Z,227.95
2017-11-03T06:13:11.329Z,227.32
2017-11-03T06:14:13.831Z,292.08
2017-11-03T06:15:17.107Z,367.25
2017-11-03T06:16:22.719Z,213.77
2017-11-03T06:17:25.227Z,201.20
2017-11-03T06:18:27.911Z,250.43
2017-11-03T06:19:30.434Z,268.55
2017-11-03T06:20:32.980Z,317.20
2017-11-03T06:21:35.467Z,270.58
2017-11-03T06:22:38.052Z,154.18
2017-11-03T06:23:40.574Z,275.40
2017-11-03T06:24:43.399Z,238.75
2017-11-03T06:25:48.560Z,201.70
2017-11-03T06:26:52.093Z,274.83
2017-11-03T06:27:54.683Z,258.52
2017-11-03T06:28:57.351Z,221.95
2017-11-03T06:30:01.014Z,238.02
2017-11-03T06:31:03.601Z,320.45
2017-11-03T06:32:06.104Z,322.00
2017-11-03T06:33:09.739Z,334.48
2017-11-03T06:34:12.251Z,283.20
2017-11-03T06:35:14.898Z,231.50
2017-11-03T06:36:18.015Z,326.35
2017-11-03T06:37:21.489Z,240.70
2017-11-03T06:38:23.992Z,242.02
2017-11-03T06:39:26.510Z,315.50
2017-11-03T06:40:29.623Z,299.42
2017-11-03T06:41:32.131Z,236.52
2017-11-03T06:42:34.636Z,368.48
2017-11-03T06:43:37.166Z,193.93
2017-11-03T06:44:39.732Z,239.68
2017-11-03T06:45:43.027Z,206.48
2017-11-03T06:46:45.591Z,239.18
2017-11-03T06:47:48.150Z,291.92
2017-11-03T06:48:50.643Z,263.85
2017-11-03T06:49:53.211Z,344.02
2017-11-03T06:50:55.721Z,300.15
2017-11-03T06:51:58.251Z,260.38
2017-11-03T06:53:00.751Z,324.92
2017-11-03T06:54:03.773Z,400.52
2017-11-03T06:55:06.707Z,361.33
2017-11-03T06:56:09.222Z,251.73
2017-11-03T06:57:11.734Z,267.98
2017-11-03T06:58:14.252Z,314.05
2017-11-03T06:59:16.771Z,328.95
2017-11-03T07:00:19.278Z,315.92
2017-11-03T07:01:21.791Z,212.23
2017-11-03T07:02:24.467Z,386.70
2017-11-03T07:03:26.964Z,292.37
2017-11-03T07:04:30.554Z,419.27
2017-11-03T07:05:33.051Z,348.50
2017-11-03T07:06:35.618Z,238.55
2017-11-03T07:07:38.123Z,276.50
2017-11-03T07:08:40.655Z,336.37
2017-11-03T07:09:43.921Z,389.20
2017-11-03T07:10:47.689Z,335.20
2017-11-03T07:11:50.203Z,313.33
2017-11-03T07:12:53.505Z,221.20
2017-11-03T07:13:56.103Z,249.32
2017-11-03T07:14:58.805Z,156.73
2017-11-03T07:16:02.552Z,233.52
2017-11-03T07:17:07.251Z,283.92
2017-11-03T07:18:09.786Z,241.40
2017-11-03T07:19:12.532Z,217.18
2017-11-03T07:20:15.022Z,391.55
2017-11-03T07:21:18.528Z,222.20
2017-11-03T07:22:21.775Z,206.60
2017-11-03T07:23:24.519Z,200.05
2017-11-03T07:24:27.048Z,201.70
2017-11-03T07:25:30.394Z,224.32
2017-11-03T07:26:32.904Z,307.15
2017-11-03T07:27:36.633Z,274.48
2017-11-03T07:28:39.180Z,294.90
2017-11-03T07:29:41.689Z,427.80
2017-11-03T07:30:44.680Z,206.00
2017-11-03T07:31:47.532Z,260.98
2017-11-03T07:32:50.029Z,278.98
2017-11-03T07:33:52.731Z,233.23
2017-11-03T07:34:55.228Z,150.38
2017-11-03T07:35:59.040Z,203.18
2017-11-03T07:37:01.531Z,172.32
2017-11-03T07:38:04.343Z,249.80
2017-11-03T07:39:06.836Z,182.23
2017-11-03T07:40:09.344Z,243.10
2017-11-03T07:41:13.308Z,198.75
2017-11-03T07:42:16.523Z,208.07
2017-11-03T07:43:19.877Z,215.95
2017-11-03T07:44:22.447Z,204.35
2017-11-03T07:45:25.071Z,245.43
2017-11-03T07:46:28.622Z,233.98
2017-11-03T07:47:31.132Z,191.45
2017-11-03T07:48:33.758Z,216.77
2017-11-03T07:49:36.294Z,111.97
2017-11-03T07:50:38.849Z,170.95
2017-11-03T07:51:41.389Z,170.00
2017-11-03T07:52:44.190Z,137.80
2017-11-03T07:53:46.883Z,172.70
2017-11-03T07:54:49.544Z,176.18
2017-11-03T07:55:52.734Z,133.40
2017-11-03T07:56:56.271Z,213.05
2017-11-03T07:57:58.761Z,153.90
2017-11-03T07:59:01.374Z,127.30
2017-11-03T08:00:04.005Z,122.45
2017-11-03T08:01:06.857Z,156.85
2017-11-03T08:02:09.427Z,108.18
2017-11-03T08:03:12.063Z,126.55
2017-11-03T08:04:24.105Z,112.00
2017-11-03T08:05:28.861Z,117.18
2017-11-03T08:06:32.332Z,105.37
2017-11-03T08:07:34.851Z,121.72
2017-11-03T08:08:37.375Z,101.50
2017-11-03T08:09:39.862Z,116.05
2017-11-03T08:10:42.603Z,105.68
2017-11-03T08:11:45.120Z,137.85
2017-11-03T08:12:47.794Z,117.35
2017-11-03T08:13:50.283Z,120.70
2017-11-03T08:14:52.794Z,120.25
2017-11-03T08:15:56.184Z,131.20
2017-11-03T08:16:59.183Z,135.15
2017-11-03T08:18:01.706Z,116.88
2017-11-03T08:19:04.378Z,100.38
2017-11-03T08:20:06.932Z,123.40
2017-11-03T08:21:10.342Z,130.52
2017-11-03T08:22:13.633Z,113.00
2017-11-03T08:23:16.911Z,98.45
2017-11-03T08:24:20.165Z,100.68
2017-11-03T08:25:22.924Z,96.05
2017-11-03T08:26:25.529Z,113.93
2017-11-03T08:27:28.789Z,114.12
2017-11-03T08:28:31.328Z,108.80
2017-11-03T08:29:34.208Z,122.20
2017-11-03T08:30:36.725Z,107.28
2017-11-03T08:31:40.078Z,112.10
2017-11-03T08:32:42.571Z,113.55
2017-11-03T08:33:46.092Z,113.37
2017-11-03T08:34:48.636Z,99.10
2017-11-03T08:35:51.374Z,121.68
2017-11-03T08:36:54.125Z,112.07
2017-11-03T08:37:56.708Z,101.82
2017-11-03T08:39:00.145Z,115.90
2017-11-03T08:40:02.780Z,95.65
2017-11-03T08:41:05.287Z,103.82
2017-11-03T08:42:08.023Z,120.82
2017-11-03T08:43:11.290Z,90.80
2017-11-03T08:44:14.100Z,99.95
2017-11-03T08:45:16.621Z,106.12
2017-11-03T08:46:19.150Z,106.10
2017-11-03T08:47:21.826Z,106.45
2017-11-03T08:48:24.326Z,106.47
2017-11-03T08:49:27.027Z,105.37
2017-11-03T08:50:31.232Z,101.80
2017-11-03T08:51:34.008Z,105.30
2017-11-03T08:52:37.259Z,117.80
2017-11-03T08:53:41.364Z,103.45
2017-11-03T08:54:43.912Z,96.22
2017-11-03T08:55:46.432Z,99.20
2017-11-03T08:56:49.109Z,108.50
2017-11-03T08:57:51.722Z,98.37
2017-11-03T08:58:54.364Z,99.53
2017-11-03T08:59:57.079Z,108.95
2017-11-03T09:00:59.617Z,98.62
2017-11-03T09:02:02.143Z,97.78
2017-11-03T09:03:04.664Z,104.53
2017-11-03T09:04:07.213Z,102.22
2017-11-03T09:05:09.731Z,106.82
2017-11-03T09:06:13.101Z,112.43
2017-11-03T09:07:16.488Z,109.37
2017-11-03T09:08:19.045Z,115.12
2017-11-03T09:09:21.540Z,122.85
2017-11-03T09:10:24.163Z,118.40
2017-11-03T09:11:26.892Z,128.35
2017-11-03T09:12:30.664Z,126.95
2017-11-03T09:13:33.988Z,128.93
2017-11-03T09:14:36.563Z,126.53
2017-11-03T09:15:39.493Z,118.18
2017-11-03T09:16:43.123Z,117.35
2017-11-03T09:17:45.638Z,109.40
2017-11-03T09:18:49.336Z,116.97
2017-11-03T09:19:54.305Z,112.85
2017-11-03T09:20:57.060Z,126.53
2017-11-03T09:22:00.069Z,122.80
2017-11-03T09:23:02.705Z,119.65
2017-11-03T09:24:05.717Z,112.47
2017-11-03T09:25:08.282Z,105.80
2017-11-03T09:26:10.832Z,108.07
2017-11-03T09:27:13.686Z,107.93
2017-11-03T09:28:16.197Z,100.18
2017-11-03T09:29:18.955Z,105.15
2017-11-03T09:30:21.457Z,100.75
2017-11-03T09:31:24.722Z,90.78
2017-11-03T09:32:27.203Z,102.65
2017-11-03T09:33:30.645Z,101.32
2017-11-03T09:34:33.281Z,98.70
2017-11-03T09:35:36.990Z,85.70
2017-11-03T09:36:39.523Z,96.57
2017-11-03T09:37:43.152Z,95.72
2017-11-03T09:38:45.684Z,90.75
2017-11-03T09:39:49.133Z,89.85
2017-11-03T09:40:51.632Z,94.47
2017-11-03T09:41:55.205Z,94.62
2017-11-03T09:42:57.696Z,97.43
2017-11-03T09:44:01.436Z,96.12
2017-11-03T09:45:04.099Z,95.95
2017-11-03T09:46:07.004Z,105.10
2017-11-03T09:47:09.543Z,96.45
2017-11-03T09:48:12.235Z,91.82
2017-11-03T09:49:14.759Z,88.60
2017-11-03T09:50:17.907Z,90.47
2017-11-03T09:51:20.409Z,85.38
2017-11-03T09:52:23.256Z,92.25
2017-11-03T09:53:26.512Z,95.62
2017-11-03T09:54:29.260Z,85.47
2017-11-03T09:55:31.758Z,97.03
2017-11-03T09:56:34.594Z,98.40
2017-11-03T09:57:37.349Z,86.70
2017-11-03T09:58:40.162Z,82.00
2017-11-03T09:59:42.750Z,83.75
2017-11-03T10:00:45.510Z,83.97
2017-11-03T10:01:48.023Z,89.93
2017-11-03T10:02:50.847Z,93.68
2017-11-03T10:03:53.364Z,91.45
2017-11-03T10:04:56.284Z,91.82
2017-11-03T10:05:59.548Z,84.40
2017-11-03T10:07:02.146Z,86.70
2017-11-03T10:08:04.956Z,80.20
2017-11-03T10:09:07.812Z,91.82
2017-11-03T10:10:11.220Z,98.93
2017-11-03T10:11:14.715Z,95.38
2017-11-03T10:12:17.241Z,84.90
2017-11-03T10:13:19.966Z,95.97
2017-11-03T10:14:22.462Z,99.28
2017-11-03T10:15:25.037Z,80.53
2017-11-03T10:16:27.563Z,91.22
2017-11-03T10:17:30.413Z,81.10
2017-11-03T10:18:33.568Z,90.38
2017-11-03T10:19:41.541Z,82.88
2017-11-03T10:20:44.023Z,90.53
2017-11-03T10:21:46.684Z,75.97
2017-11-03T10:22:49.227Z,91.95
2017-11-03T10:23:52.023Z,90.50
2017-11-03T10:24:54.685Z,90.57
2017-11-03T10:25:58.488Z,100.80
2017-11-03T10:27:00.996Z,86.37
2017-11-03T10:28:03.835Z,95.80
2017-11-03T10:29:07.142Z,84.50
2017-11-03T10:30:09.785Z,94.32
2017-11-03T10:31:12.383Z,90.03
2017-11-03T10:32:15.107Z,87.35
2017-11-03T10:33:18.088Z,79.87
2017-11-03T10:34:20.760Z,82.35
2017-11-03T10:35:24.027Z,82.65
2017-11-03T10:36:26.726Z,89.35
2017-11-03T10:37:30.076Z,93.68
2017-11-03T10:38:32.788Z,86.18
2017-11-03T10:39:36.052Z,86.07
2017-11-03T10:40:38.626Z,96.32
2017-11-03T10:41:41.112Z,82.60
2017-11-03T10:42:44.568Z,90.62
2017-11-03T10:43:47.275Z,80.60
2017-11-03T10:44:49.918Z,86.10
2017-11-03T10:45:52.435Z,84.10
2017-11-03T10:46:55.304Z,86.40
2017-11-03T10:47:57.861Z,85.80
2017-11-03T10:49:00.635Z,85.85
2017-11-03T10:50:03.144Z,80.97
2017-11-03T10:51:06.022Z,81.28
2017-11-03T10:52:08.541Z,92.82
2017-11-03T10:53:11.456Z,78.50
2017-11-03T10:54:13.963Z,83.37
2017-11-03T10:55:16.578Z,85.00
2017-11-03T10:56:19.195Z,81.32
2017-11-03T10:57:21.926Z,89.72
2017-11-03T10:58:24.470Z,85.43
2017-11-03T10:59:27.319Z,81.22
2017-11-03T11:00:29.935Z,86.12
2017-11-03T11:01:32.598Z,87.95
2017-11-03T11:02:35.097Z,91.63
2017-11-03T11:03:40.106Z,76.12
2017-11-03T11:04:42.623Z,96.43
2017-11-03T11:05:45.453Z,91.43
2017-11-03T11:06:47.981Z,92.20
2017-11-03T11:07:50.759Z,93.53
2017-11-03T11:08:53.411Z,85.25
2017-11-03T11:09:56.236Z,102.78
2017-11-03T11:10:58.748Z,97.75
2017-11-03T11:12:01.558Z,86.63
2017-11-03T11:13:04.996Z,80.40
2017-11-03T11:14:07.794Z,75.85
2017-11-03T11:15:10.324Z,89.85
2017-11-03T11:16:13.056Z,77.50
2017-11-03T11:17:16.155Z,83.22
2017-11-03T11:18:19.616Z,90.45
2017-11-03T11:19:22.131Z,88.43
2017-11-03T11:20:24.975Z,78.20
2017-11-03T11:21:27.485Z,75.30
2017-11-03T11:22:30.300Z,78.07
2017-11-03T11:23:32.838Z,74.95
2017-11-03T11:24:35.654Z,80.60
2017-11-03T11:25:38.941Z,87.37
2017-11-03T11:26:43.264Z,76.95
2017-11-03T11:27:46.525Z,74.55
2017-11-03T11:28:50.237Z,80.47
2017-11-03T11:29:52.744Z,75.82
2017-11-03T11:30:55.354Z,77.95
2017-11-03T11:31:57.969Z,88.97
2017-11-03T11:33:00.674Z,78.45
2017-11-03T11:34:03.187Z,77.28
2017-11-03T11:35:06.032Z,94.78
2017-11-03T11:36:08.568Z,81.55
2017-11-03T11:37:11.351Z,81.12
2017-11-03T11:38:13.961Z,79.28
2017-11-03T11:39:16.736Z,83.68
2017-11-03T11:40:19.408Z,79.62
2017-11-03T11:41:22.138Z,79.37
2017-11-03T11:42:24.630Z,83.43
2017-11-03T11:43:27.498Z,72.80
2017-11-03T11:44:30.889Z,84.47
2017-11-03T11:45:34.271Z,88.37
2017-11-03T11:46:37.528Z,76.78
2017-11-03T11:47:40.203Z,79.78
2017-11-03T11:48:42.726Z,81.32
2017-11-03T11:49:45.560Z,79.78
2017-11-03T11:50:48.800Z,74.80
2017-11-03T11:51:51.512Z,85.38
2017-11-03T11:52:54.782Z,76.97
2017-11-03T11:53:57.505Z,83.45
2017-11-03T11:55:00.119Z,71.60
2017-11-03T11:56:02.782Z,76.60
2017-11-03T11:57:05.315Z,71.43
2017-11-03T11:58:08.544Z,79.28
2017-11-03T11:59:11.798Z,86.05
2017-11-03T12:00:14.383Z,74.20
2017-11-03T12:01:16.919Z,72.70
2017-11-03T12:02:19.738Z,75.82
2017-11-03T12:03:23.134Z,74.68
2017-11-03T12:04:26.609Z,68.82
2017-11-03T12:05:29.885Z,79.37
2017-11-03T12:06:32.558Z,85.75
2017-11-03T12:07:35.846Z,74.07
2017-11-03T12:08:39.423Z,81.63
2017-11-03T12:09:42.060Z,76.80
2017-11-03T12:10:45.680Z,83.35
2017-11-03T12:11:49.691Z,78.00
2017-11-03T12:12:53.289Z,96.70
2017-11-03T12:13:56.540Z,86.55
2017-11-03T12:14:59.294Z,82.70
2017-11-03T12:16:01.799Z,79.22
2017-11-03T12:17:04.459Z,76.53
2017-11-03T12:18:07.004Z,73.85
2017-11-03T12:19:09.811Z,78.28
2017-11-03T12:20:12.353Z,71.87
2017-11-03T12:21:15.154Z,67.82
2017-11-03T12:22:18.464Z,74.37
2017-11-03T12:23:21.119Z,69.65
2017-11-03T12:24:24.378Z,72.90
2017-11-03T12:25:27.187Z,69.50
2017-11-03T12:26:30.504Z,79.03
2017-11-03T12:27:33.287Z,81.75
2017-11-03T12:28:35.815Z,73.95
2017-11-03T12:29:38.339Z,74.15
2017-11-03T12:30:40.871Z,76.53
2017-11-03T12:31:44.620Z,78.75
2017-11-03T12:32:47.926Z,79.10
2017-11-03T12:33:50.740Z,71.62
2017-11-03T12:34:53.278Z,69.60
2017-11-03T12:35:56.115Z,73.32
2017-11-03T12:36:59.571Z,91.60
2017-11-03T12:38:02.211Z,80.03
2017-11-03T12:39:04.807Z,82.20
2017-11-03T12:40:07.489Z,88.80
2017-11-03T12:41:10.045Z,84.15
2017-11-03T12:42:12.982Z,86.03
2017-11-03T12:43:15.622Z,93.22
2017-11-03T12:44:19.562Z,88.20
2017-11-03T12:45:22.123Z,82.15
2017-11-03T12:46:24.766Z,82.32
2017-11-03T12:47:27.356Z,80.07
2017-11-03T12:48:30.092Z,77.78
2017-11-03T12:49:33.371Z,74.22
2017-11-03T12:50:36.952Z,78.70
2017-11-03T12:51:39.525Z,74.68
2017-11-03T12:52:44.498Z,73.22
2017-11-03T12:53:47.086Z,73.78
2017-11-03T12:54:50.506Z,77.62
2017-11-03T12:55:53.792Z,71.97
2017-11-03T12:56:58.208Z,72.55
2017-11-03T12:58:02.433Z,78.75
2017-11-03T12:59:05.143Z,75.22
2017-11-03T13:00:07.710Z,76.05
2017-11-03T13:01:10.963Z,79.28
2017-11-03T13:02:13.527Z,79.80
2017-11-03T13:03:16.055Z,89.80
2017-11-03T13:04:28.008Z,74.60
2017-11-03T13:05:31.835Z,76.47
2017-11-03T13:06:34.771Z,75.75
2017-11-03T13:07:39.925Z,81.82
2017-11-03T13:08:44.974Z,74.50
2017-11-03T13:09:48.199Z,75.30
2017-11-03T13:10:51.571Z,77.57
2017-11-03T13:11:55.388Z,71.25
2017-11-03T13:12:59.767Z,61.78
2017-11-03T13:14:04.142Z,68.20
2017-11-03T13:15:07.986Z,80.05
2017-11-03T13:16:12.426Z,79.95
2017-11-03T13:17:16.125Z,69.85
2017-11-03T13:18:18.647Z,78.30
2017-11-03T13:19:25.280Z,79.53
2017-11-03T13:20:28.953Z,73.22
2017-11-03T13:21:32.644Z,75.40
2017-11-03T13:22:35.993Z,66.95
2017-11-03T13:23:39.318Z,76.28